createdAt,value
2019-03-18T00:00:30.977Z,85.64
2019-03-18T00:01:30.981Z,85.74
2019-03-18T00:02:30.957Z,85.74
2019-03-18T00:03:30.949Z,85.95
2019-03-18T00:04:30.929Z,85.95
2019-03-18T00:05:30.921Z,86.47
2019-03-18T00:06:30.934Z,86.05
2019-03-18T00:07:30.899Z,86.47
2019-03-18T00:08:30.894Z,86.68
2019-03-18T00:09:30.875Z,86.36
2019-03-18T00:10:30.868Z,86.19
2019-03-18T00:11:30.880Z,86.09
2019-03-18T00:12:30.845Z,86.36
2019-03-18T00:13:30.836Z,86.57
2019-03-18T00:14:30.835Z,86.36
2019-03-18T00:15:30.811Z,86.47
2019-03-18T00:16:32.337Z,86.82
2019-03-18T00:17:30.793Z,86.47
2019-03-18T00:18:30.793Z,86.41
2019-03-18T00:19:30.772Z,86.41
2019-03-18T00:20:30.758Z,86.78
2019-03-18T00:21:30.761Z,86.36
2019-03-18T00:22:30.757Z,86.30
2019-03-18T00:23:30.724Z,86.41
2019-03-18T00:24:30.715Z,86.36
2019-03-18T00:25:30.701Z,86.88
2019-03-18T00:26:30.694Z,87.51
2019-03-18T00:27:30.707Z,87.71
2019-03-18T00:28:30.669Z,87.13
2019-03-18T00:29:30.658Z,86.88
2019-03-18T00:30:30.648Z,86.61
2019-03-18T00:31:30.635Z,86.41
2019-03-18T00:32:30.630Z,86.57
2019-03-18T00:33:30.646Z,86.68
2019-03-18T00:34:30.605Z,86.47
2019-03-18T00:35:30.602Z,86.36
2019-03-18T00:36:30.581Z,86.78
2019-03-18T00:37:30.571Z,86.26
2019-03-18T00:38:30.579Z,86.78
2019-03-18T00:39:30.555Z,86.36
2019-03-18T00:40:30.541Z,86.36
2019-03-18T00:41:30.528Z,86.36
2019-03-18T00:42:30.515Z,86.47
2019-03-18T00:43:30.528Z,86.47
2019-03-18T00:44:30.497Z,86.05
2019-03-18T00:45:30.481Z,86.68
2019-03-18T00:46:30.472Z,86.36
2019-03-18T00:47:30.461Z,86.68
2019-03-18T00:48:30.469Z,86.88
2019-03-18T00:49:30.447Z,86.88
2019-03-18T00:50:30.426Z,86.99
2019-03-18T00:51:30.421Z,86.82
2019-03-18T00:52:30.406Z,86.88
2019-03-18T00:53:30.418Z,87.65
2019-03-18T00:54:30.383Z,87.86
2019-03-18T00:55:30.379Z,87.03
2019-03-18T00:56:30.367Z,87.76
2019-03-18T00:57:30.358Z,87.45
2019-03-18T00:58:30.363Z,87.65
2019-03-18T00:59:30.327Z,87.59
2019-03-18T01:00:30.319Z,87.86
2019-03-18T01:01:30.309Z,87.69
2019-03-18T01:02:30.303Z,87.90
2019-03-18T01:03:30.309Z,87.55
2019-03-18T01:04:30.275Z,87.76
2019-03-18T01:05:30.262Z,87.59
2019-03-18T01:06:30.257Z,86.93
2019-03-18T01:07:30.243Z,87.55
2019-03-18T01:08:30.229Z,87.55
2019-03-18T01:09:30.248Z,87.86
2019-03-18T01:10:30.215Z,87.45
2019-03-18T01:11:30.196Z,87.55
2019-03-18T01:12:30.184Z,87.65
2019-03-18T01:13:30.174Z,87.34
2019-03-18T01:14:30.195Z,86.93
2019-03-18T01:15:30.157Z,86.93
2019-03-18T01:16:30.146Z,87.65
2019-03-18T01:17:30.131Z,86.93
2019-03-18T01:18:30.122Z,87.65
2019-03-18T01:19:30.139Z,86.93
2019-03-18T01:20:30.102Z,87.65
2019-03-18T01:21:30.109Z,86.86
2019-03-18T01:22:30.085Z,87.86
2019-03-18T01:23:30.096Z,86.72
2019-03-18T01:24:30.073Z,86.93
2019-03-18T01:25:30.045Z,86.86
2019-03-18T01:26:30.037Z,87.45
2019-03-18T01:27:30.030Z,87.90
2019-03-18T01:28:30.009Z,86.93
2019-03-18T01:29:30.024Z,86.93
2019-03-18T01:30:29.997Z,86.55
2019-03-18T01:31:29.985Z,86.86
2019-03-18T01:32:29.969Z,86.82
2019-03-18T01:33:29.958Z,86.24
2019-03-18T01:34:29.967Z,86.72
2019-03-18T01:35:29.935Z,87.03
2019-03-18T01:36:29.930Z,86.61
2019-03-18T01:37:29.915Z,86.41
2019-03-18T01:38:29.905Z,86.72
2019-03-18T01:39:29.909Z,86.82
2019-03-18T01:40:29.884Z,86.86
2019-03-18T01:41:29.875Z,86.96
2019-03-18T01:42:29.862Z,86.96
2019-03-18T01:43:29.856Z,87.59
2019-03-18T01:44:29.868Z,87.79
2019-03-18T01:45:40.129Z,87.55
2019-03-18T01:46:30.822Z,87.90
2019-03-18T01:47:29.809Z,86.61
2019-03-18T01:48:29.794Z,86.93
2019-03-18T01:49:29.811Z,87.90
2019-03-18T01:50:29.773Z,87.79
2019-03-18T01:51:29.763Z,86.93
2019-03-18T01:52:29.764Z,86.51
2019-03-18T01:53:29.737Z,86.09
2019-03-18T01:54:29.750Z,86.51
2019-03-18T01:55:29.720Z,86.34
2019-03-18T01:56:29.705Z,86.65
2019-03-18T01:57:29.694Z,86.13
2019-03-18T01:58:29.694Z,85.88
2019-03-18T01:59:29.777Z,85.88
2019-03-18T02:00:29.668Z,86.09
2019-03-18T02:01:29.651Z,86.51
2019-03-18T02:02:29.642Z,86.44
2019-03-18T02:03:29.634Z,86.09
2019-03-18T02:04:29.622Z,85.93
2019-03-18T02:05:29.629Z,86.09
2019-03-18T02:06:29.595Z,86.09
2019-03-18T02:07:29.595Z,86.24
2019-03-18T02:08:29.575Z,86.09
2019-03-18T02:09:29.564Z,86.55
2019-03-18T02:10:29.572Z,86.19
2019-03-18T02:11:29.559Z,86.55
2019-03-18T02:12:29.540Z,86.41
2019-03-18T02:13:29.519Z,86.44
2019-03-18T02:14:29.508Z,86.13
2019-03-18T02:15:29.513Z,86.41
2019-03-18T02:16:29.489Z,86.96
2019-03-18T02:17:29.479Z,86.44
2019-03-18T02:18:29.474Z,86.65
2019-03-18T02:19:29.458Z,86.96
2019-03-18T02:20:29.465Z,86.86
2019-03-18T02:21:29.444Z,86.55
2019-03-18T02:22:29.427Z,86.65
2019-03-18T02:23:29.428Z,86.44
2019-03-18T02:24:29.405Z,86.55
2019-03-18T02:25:29.418Z,86.34
2019-03-18T02:26:29.383Z,87.07
2019-03-18T02:27:29.384Z,86.44
2019-03-18T02:28:29.358Z,85.93
2019-03-18T02:29:29.348Z,86.13
2019-03-18T02:30:29.345Z,86.03
2019-03-18T02:31:29.455Z,86.24
2019-03-18T02:32:29.330Z,86.86
2019-03-18T02:33:29.463Z,86.44
2019-03-18T02:34:29.297Z,86.96
2019-03-18T02:35:29.290Z,86.76
2019-03-18T02:36:29.297Z,86.96
2019-03-18T02:37:29.315Z,86.65
2019-03-18T02:38:29.258Z,86.96
2019-03-18T02:39:29.248Z,86.76
2019-03-18T02:40:29.245Z,87.48
2019-03-18T02:41:29.256Z,87.79
2019-03-18T02:42:29.206Z,87.07
2019-03-18T02:43:29.206Z,86.55
2019-03-18T02:44:29.243Z,87.07
2019-03-18T02:45:29.198Z,87.79
2019-03-18T02:46:29.186Z,87.07
2019-03-18T02:47:29.158Z,86.76
2019-03-18T02:48:29.150Z,87.17
2019-03-18T02:49:29.135Z,86.86
2019-03-18T02:50:29.132Z,87.59
2019-03-18T02:51:29.156Z,87.69
2019-03-18T02:52:29.116Z,87.48
2019-03-18T02:53:29.093Z,87.69
2019-03-18T02:54:29.084Z,87.59
2019-03-18T02:55:29.070Z,87.69
2019-03-18T02:56:29.056Z,87.69
2019-03-18T02:57:29.090Z,87.48
2019-03-18T02:58:29.034Z,87.69
2019-03-18T02:59:29.024Z,86.76
2019-03-18T03:00:29.019Z,86.96
2019-03-18T03:01:29.007Z,87.84
2019-03-18T03:02:29.008Z,87.48
2019-03-18T03:03:29.020Z,87.69
2019-03-18T03:04:28.975Z,87.17
2019-03-18T03:05:28.962Z,87.79
2019-03-18T03:06:28.951Z,86.65
2019-03-18T03:07:28.963Z,86.86
2019-03-18T03:08:28.928Z,86.44
2019-03-18T03:09:28.931Z,86.96
2019-03-18T03:10:28.904Z,86.44
2019-03-18T03:11:28.895Z,86.86
2019-03-18T03:12:28.906Z,86.96
2019-03-18T03:13:28.909Z,86.96
2019-03-18T03:14:28.866Z,87.07
2019-03-18T03:15:28.853Z,87.59
2019-03-18T03:16:28.842Z,87.69
2019-03-18T03:17:28.861Z,87.69
2019-03-18T03:18:28.828Z,86.86
2019-03-18T03:19:28.836Z,86.76
2019-03-18T03:20:28.808Z,86.96
2019-03-18T03:21:28.786Z,87.69
2019-03-18T03:22:28.816Z,87.69
2019-03-18T03:23:28.766Z,87.79
2019-03-18T03:24:28.762Z,87.69
2019-03-18T03:25:28.746Z,86.82
2019-03-18T03:26:28.745Z,87.86
2019-03-18T03:27:28.819Z,87.69
2019-03-18T03:28:28.707Z,87.79
2019-03-18T03:29:28.698Z,87.79
2019-03-18T03:30:28.738Z,87.59
2019-03-18T03:31:28.687Z,87.55
2019-03-18T03:32:28.663Z,87.55
2019-03-18T03:33:28.697Z,87.55
2019-03-18T03:34:28.652Z,87.76
2019-03-18T03:35:28.652Z,87.65
2019-03-18T03:36:28.642Z,87.76
2019-03-18T03:37:28.618Z,87.69
2019-03-18T03:38:28.623Z,87.55
2019-03-18T03:39:28.582Z,87.65
2019-03-18T03:40:28.586Z,87.55
2019-03-18T03:41:28.587Z,87.55
2019-03-18T03:42:28.566Z,87.65
2019-03-18T03:43:28.585Z,87.86
2019-03-18T03:44:28.540Z,88.07
2019-03-18T03:45:28.534Z,88.07
2019-03-18T03:46:42.280Z,88.21
2019-03-18T03:47:29.516Z,88.17
2019-03-18T03:48:28.494Z,88.28
2019-03-18T03:49:28.504Z,87.76
2019-03-18T03:50:28.472Z,87.96
2019-03-18T03:51:28.457Z,88.07
2019-03-18T03:52:28.456Z,87.96
2019-03-18T03:53:30.954Z,88.59
2019-03-18T03:54:28.442Z,88.17
2019-03-18T03:55:28.440Z,88.48
2019-03-18T03:56:28.407Z,88.28
2019-03-18T03:57:28.394Z,88.48
2019-03-18T03:58:28.385Z,88.79
2019-03-18T03:59:28.391Z,88.07
2019-03-18T04:00:28.385Z,89.00
2019-03-18T04:01:29.685Z,88.28
2019-03-18T04:02:28.338Z,88.79
2019-03-18T04:03:38.103Z,89.42
2019-03-18T04:04:29.349Z,89.00
2019-03-18T04:05:28.303Z,89.00
2019-03-18T04:06:28.297Z,89.21
2019-03-18T04:07:28.287Z,89.48
2019-03-18T04:08:28.278Z,89.48
2019-03-18T04:09:28.286Z,89.83
2019-03-18T04:10:28.291Z,90.35
2019-03-18T04:11:28.241Z,89.89
2019-03-18T04:12:28.231Z,89.89
2019-03-18T04:13:28.222Z,89.11
2019-03-18T04:14:28.227Z,89.21
2019-03-18T04:15:28.222Z,89.48
2019-03-18T04:16:28.188Z,89.52
2019-03-18T04:17:28.174Z,90.52
2019-03-18T04:18:28.218Z,90.93
2019-03-18T04:19:28.178Z,91.18
2019-03-18T04:20:28.145Z,90.97
2019-03-18T04:21:28.158Z,91.60
2019-03-18T04:22:28.175Z,91.28
2019-03-18T04:23:28.118Z,90.83
2019-03-18T04:24:28.140Z,90.35
2019-03-18T04:25:28.097Z,90.45
2019-03-18T04:26:28.105Z,90.77
2019-03-18T04:27:28.070Z,91.03
2019-03-18T04:28:28.092Z,91.14
2019-03-18T04:29:28.071Z,90.83
2019-03-18T04:30:28.049Z,91.39
2019-03-18T04:31:28.032Z,91.70
2019-03-18T04:32:28.011Z,92.07
2019-03-18T04:33:28.001Z,92.01
2019-03-18T04:34:28.024Z,92.49
2019-03-18T04:35:27.978Z,92.63
2019-03-18T04:36:27.966Z,92.28
2019-03-18T04:37:27.957Z,91.70
2019-03-18T04:38:27.980Z,91.70
2019-03-18T04:39:27.943Z,92.07
2019-03-18T04:40:27.944Z,92.38
2019-03-18T04:41:27.973Z,92.43
2019-03-18T04:42:27.918Z,91.80
2019-03-18T04:43:27.891Z,92.63
2019-03-18T04:44:27.886Z,92.69
2019-03-18T04:45:27.895Z,92.53
2019-03-18T04:46:27.875Z,93.05
2019-03-18T04:47:27.851Z,92.28
2019-03-18T04:48:27.844Z,92.80
2019-03-18T04:49:27.843Z,93.68
2019-03-18T04:50:27.839Z,94.05
2019-03-18T04:51:27.834Z,93.78
2019-03-18T04:52:27.795Z,93.53
2019-03-18T04:53:27.791Z,94.05
2019-03-18T04:54:27.771Z,93.95
2019-03-18T04:55:27.808Z,93.88
2019-03-18T04:56:27.752Z,93.84
2019-03-18T04:57:27.738Z,92.74
2019-03-18T04:58:27.731Z,92.63
2019-03-18T04:59:27.720Z,92.69
2019-03-18T05:00:27.708Z,92.63
2019-03-18T05:01:27.711Z,92.22
2019-03-18T05:02:27.682Z,92.28
2019-03-18T05:03:27.670Z,92.69
2019-03-18T05:04:27.657Z,92.18
2019-03-18T05:05:27.652Z,91.91
2019-03-18T05:06:27.658Z,91.24
2019-03-18T05:07:27.707Z,92.38
2019-03-18T05:08:27.616Z,92.63
2019-03-18T05:09:27.603Z,92.53
2019-03-18T05:10:27.605Z,92.07
2019-03-18T05:11:27.606Z,92.01
2019-03-18T05:12:27.571Z,92.69
2019-03-18T05:13:27.580Z,92.38
2019-03-18T05:14:27.574Z,92.38
2019-03-18T05:15:27.550Z,93.16
2019-03-18T05:16:27.543Z,92.84
2019-03-18T05:17:27.513Z,92.63
2019-03-18T05:18:27.507Z,93.32
2019-03-18T05:19:27.491Z,92.38
2019-03-18T05:20:27.480Z,91.55
2019-03-18T05:21:27.489Z,92.18
2019-03-18T05:22:27.459Z,92.18
2019-03-18T05:23:27.460Z,92.80
2019-03-18T05:24:27.437Z,92.28
2019-03-18T05:25:27.427Z,92.90
2019-03-18T05:26:27.440Z,92.18
2019-03-18T05:27:27.402Z,92.18
2019-03-18T05:28:27.407Z,92.69
2019-03-18T05:29:27.382Z,91.76
2019-03-18T05:30:27.377Z,91.66
2019-03-18T05:31:27.359Z,91.45
2019-03-18T05:32:27.368Z,91.66
2019-03-18T05:33:27.350Z,91.35
2019-03-18T05:34:27.337Z,91.55
2019-03-18T05:35:27.337Z,91.66
2019-03-18T05:36:27.307Z,92.18
2019-03-18T05:37:27.312Z,91.97
2019-03-18T05:38:27.284Z,92.18
2019-03-18T05:39:27.285Z,92.59
2019-03-18T05:40:27.263Z,91.55
2019-03-18T05:41:27.281Z,91.45
2019-03-18T05:42:27.261Z,90.93
2019-03-18T05:43:27.239Z,91.14
2019-03-18T05:44:27.219Z,91.97
2019-03-18T05:45:27.208Z,91.66
2019-03-18T05:46:27.206Z,91.35
2019-03-18T05:47:38.534Z,91.35
2019-03-18T05:48:28.189Z,91.14
2019-03-18T05:49:27.204Z,91.35
2019-03-18T05:50:27.170Z,91.86
2019-03-18T05:51:27.158Z,91.66
2019-03-18T05:52:27.160Z,91.66
2019-03-18T05:53:27.142Z,91.66
2019-03-18T05:54:27.121Z,91.35
2019-03-18T05:55:27.118Z,91.14
2019-03-18T05:56:27.094Z,91.45
2019-03-18T05:57:27.111Z,91.45
2019-03-18T05:58:27.068Z,91.45
2019-03-18T05:59:27.071Z,91.86
2019-03-18T06:00:27.050Z,91.55
2019-03-18T06:01:27.048Z,92.59
2019-03-18T06:02:27.055Z,91.66
2019-03-18T06:03:27.027Z,91.35
2019-03-18T06:04:27.016Z,91.55
2019-03-18T06:05:26.997Z,91.66
2019-03-18T06:06:26.985Z,91.18
2019-03-18T06:07:26.989Z,91.45
2019-03-18T06:08:26.981Z,91.24
2019-03-18T06:09:26.951Z,91.14
2019-03-18T06:10:26.943Z,91.35
2019-03-18T06:11:26.939Z,92.69
2019-03-18T06:12:26.925Z,91.55
2019-03-18T06:13:26.930Z,91.39
2019-03-18T06:14:26.899Z,92.38
2019-03-18T06:15:26.891Z,91.76
2019-03-18T06:16:26.891Z,92.69
2019-03-18T06:17:26.873Z,91.76
2019-03-18T06:18:26.874Z,91.66
2019-03-18T06:19:26.844Z,92.07
2019-03-18T06:20:26.832Z,91.45
2019-03-18T06:21:26.833Z,92.69
2019-03-18T06:22:26.812Z,92.49
2019-03-18T06:23:26.823Z,93.32
2019-03-18T06:24:26.795Z,93.74
2019-03-18T06:25:26.801Z,92.69
2019-03-18T06:26:26.768Z,93.32
2019-03-18T06:27:26.759Z,93.95
2019-03-18T06:28:26.771Z,93.12
2019-03-18T06:29:27.560Z,92.07
2019-03-18T06:30:26.725Z,92.66
2019-03-18T06:31:26.715Z,91.10
2019-03-18T06:32:26.704Z,91.41
2019-03-18T06:33:26.706Z,91.62
2019-03-18T06:34:26.703Z,90.27
2019-03-18T06:35:26.673Z,91.10
2019-03-18T06:36:26.659Z,91.41
2019-03-18T06:37:26.662Z,91.10
2019-03-18T06:38:26.638Z,91.97
2019-03-18T06:39:26.647Z,91.31
2019-03-18T06:40:26.615Z,91.31
2019-03-18T06:41:26.605Z,92.03
2019-03-18T06:42:26.605Z,92.66
2019-03-18T06:43:26.603Z,92.35
2019-03-18T06:44:26.605Z,92.03
2019-03-18T06:45:26.566Z,91.52
2019-03-18T06:46:26.552Z,91.41
2019-03-18T06:47:26.557Z,92.45
2019-03-18T06:48:26.530Z,92.35
2019-03-18T06:49:26.522Z,92.14
2019-03-18T06:50:26.530Z,92.24
2019-03-18T06:51:26.504Z,92.14
2019-03-18T06:52:26.493Z,92.10
2019-03-18T06:53:26.478Z,92.41
2019-03-18T06:54:26.470Z,91.68
2019-03-18T06:55:26.475Z,92.61
2019-03-18T06:56:26.460Z,91.78
2019-03-18T06:57:26.438Z,91.68
2019-03-18T06:58:26.424Z,91.89
2019-03-18T06:59:26.411Z,91.68
2019-03-18T07:00:26.444Z,92.51
2019-03-18T07:01:26.388Z,91.78
2019-03-18T07:02:26.380Z,91.06
2019-03-18T07:03:26.371Z,91.16
2019-03-18T07:04:26.368Z,91.37
2019-03-18T07:05:26.369Z,91.58
2019-03-18T07:06:26.335Z,92.51
2019-03-18T07:07:26.327Z,92.10
2019-03-18T07:08:26.321Z,91.47
2019-03-18T07:09:26.329Z,90.75
2019-03-18T07:10:26.295Z,90.95
2019-03-18T07:11:26.302Z,91.27
2019-03-18T07:12:26.274Z,91.27
2019-03-18T07:13:26.277Z,90.95
2019-03-18T07:14:26.250Z,90.54
2019-03-18T07:15:26.240Z,91.12
2019-03-18T07:16:26.253Z,92.20
2019-03-18T07:17:26.233Z,92.20
2019-03-18T07:18:26.209Z,91.68
2019-03-18T07:19:26.196Z,91.27
2019-03-18T07:20:26.187Z,91.37
2019-03-18T07:21:26.199Z,91.37
2019-03-18T07:22:26.163Z,90.64
2019-03-18T07:23:26.151Z,90.60
2019-03-18T07:24:26.141Z,91.58
2019-03-18T07:25:26.142Z,91.02
2019-03-18T07:26:26.165Z,91.12
2019-03-18T07:27:26.112Z,91.06
2019-03-18T07:28:26.100Z,90.08
2019-03-18T07:29:26.089Z,90.39
2019-03-18T07:30:26.090Z,90.60
2019-03-18T07:31:26.069Z,91.12
2019-03-18T07:32:26.084Z,91.33
2019-03-18T07:33:26.048Z,92.05
2019-03-18T07:34:26.090Z,91.12
2019-03-18T07:35:26.023Z,90.39
2019-03-18T07:36:26.013Z,90.60
2019-03-18T07:37:26.024Z,91.02
2019-03-18T07:38:25.994Z,91.22
2019-03-18T07:39:25.984Z,90.70
2019-03-18T07:40:25.972Z,91.22
2019-03-18T07:41:25.969Z,91.43
2019-03-18T07:42:25.973Z,91.12
2019-03-18T07:43:25.956Z,90.50
2019-03-18T07:44:25.934Z,91.64
2019-03-18T07:45:25.917Z,90.97
2019-03-18T07:46:25.909Z,91.18
2019-03-18T07:47:25.922Z,90.97
2019-03-18T07:48:30.854Z,91.39
2019-03-18T07:49:26.881Z,91.49
2019-03-18T07:50:25.871Z,91.28
2019-03-18T07:51:25.856Z,91.08
2019-03-18T07:52:25.870Z,91.28
2019-03-18T07:53:25.852Z,91.76
2019-03-18T07:54:32.672Z,91.55
2019-03-18T07:55:26.816Z,92.38
2019-03-18T07:56:25.803Z,90.62
2019-03-18T07:57:25.819Z,91.97
2019-03-18T07:58:25.784Z,92.38
2019-03-18T07:59:25.780Z,91.86
2019-03-18T08:00:25.766Z,91.24
2019-03-18T08:01:25.754Z,90.58
2019-03-18T08:02:25.757Z,90.68
2019-03-18T08:03:25.742Z,91.41
2019-03-18T08:04:36.717Z,89.96
2019-03-18T08:05:26.706Z,91.47
2019-03-18T08:06:25.699Z,91.05
2019-03-18T08:07:25.775Z,90.44
2019-03-18T08:08:25.773Z,89.92
2019-03-18T08:09:25.673Z,90.64
2019-03-18T08:10:25.652Z,90.44
2019-03-18T08:11:25.655Z,89.87
2019-03-18T08:12:25.647Z,89.36
2019-03-18T08:13:25.621Z,89.25
2019-03-18T08:14:25.610Z,88.88
2019-03-18T08:15:25.601Z,89.98
2019-03-18T08:16:25.587Z,89.98
2019-03-18T08:17:25.597Z,89.87
2019-03-18T08:18:25.569Z,89.15
2019-03-18T08:19:25.563Z,87.70
2019-03-18T08:20:25.565Z,89.36
2019-03-18T08:21:25.536Z,88.28
2019-03-18T08:22:25.548Z,89.77
2019-03-18T08:23:25.518Z,88.18
2019-03-18T08:24:25.514Z,87.56
2019-03-18T08:25:25.497Z,88.28
2019-03-18T08:26:27.158Z,88.59
2019-03-18T08:27:25.488Z,87.76
2019-03-18T08:28:25.479Z,88.18
2019-03-18T08:29:25.458Z,88.07
2019-03-18T08:30:25.448Z,88.07
2019-03-18T08:31:25.428Z,88.18
2019-03-18T08:32:25.438Z,88.59
2019-03-18T08:33:25.412Z,88.59
2019-03-18T08:34:25.403Z,88.28
2019-03-18T08:35:25.388Z,88.28
2019-03-18T08:36:25.388Z,87.66
2019-03-18T08:37:25.411Z,87.76
2019-03-18T08:38:25.366Z,88.07
2019-03-18T08:39:25.345Z,87.97
2019-03-18T08:40:25.340Z,87.35
2019-03-18T08:41:25.328Z,87.21
2019-03-18T08:42:25.315Z,87.15
2019-03-18T08:43:25.324Z,85.49
2019-03-18T08:44:25.302Z,84.97
2019-03-18T08:45:25.288Z,85.55
2019-03-18T08:46:25.273Z,86.01
2019-03-18T08:47:25.261Z,85.39
2019-03-18T08:48:25.268Z,85.35
2019-03-18T08:49:25.245Z,85.24
2019-03-18T08:50:25.235Z,85.45
2019-03-18T08:51:25.217Z,85.52
2019-03-18T08:52:25.211Z,85.52
2019-03-18T08:53:25.219Z,85.31
2019-03-18T08:54:25.233Z,85.41
2019-03-18T08:55:25.179Z,85.52
2019-03-18T08:56:25.167Z,85.00
2019-03-18T08:57:25.161Z,86.20
2019-03-18T08:58:25.182Z,84.65
2019-03-18T08:59:25.138Z,85.10
2019-03-18T09:00:25.123Z,85.62
2019-03-18T09:01:25.114Z,85.62
2019-03-18T09:02:25.101Z,83.83
2019-03-18T09:03:25.119Z,84.59
2019-03-18T09:04:25.082Z,84.55
2019-03-18T09:05:25.079Z,85.27
2019-03-18T09:06:25.059Z,87.19
2019-03-18T09:07:25.074Z,85.39
2019-03-18T09:08:26.494Z,84.51
2019-03-18T09:09:25.030Z,83.44
2019-03-18T09:10:25.019Z,83.64
2019-03-18T09:11:25.008Z,81.89
2019-03-18T09:12:24.995Z,82.20
2019-03-18T09:13:24.987Z,81.93
2019-03-18T09:14:24.998Z,82.20
2019-03-18T09:15:24.965Z,83.06
2019-03-18T09:16:24.957Z,84.16
2019-03-18T09:17:24.948Z,83.75
2019-03-18T09:18:24.939Z,83.33
2019-03-18T09:19:24.952Z,83.29
2019-03-18T09:20:24.913Z,83.19
2019-03-18T09:21:24.907Z,83.40
2019-03-18T09:22:24.889Z,81.85
2019-03-18T09:23:24.901Z,82.26
2019-03-18T09:24:24.892Z,82.37
2019-03-18T09:25:24.858Z,81.85
2019-03-18T09:26:24.846Z,81.13
2019-03-18T09:27:24.839Z,82.47
2019-03-18T09:28:24.825Z,82.95
2019-03-18T09:29:24.819Z,80.79
2019-03-18T09:30:24.831Z,80.37
2019-03-18T09:31:24.899Z,82.23
2019-03-18T09:32:24.790Z,79.55
2019-03-18T09:33:24.772Z,81.51
2019-03-18T09:34:24.852Z,81.20
2019-03-18T09:35:24.780Z,81.30
2019-03-18T09:36:24.737Z,80.44
2019-03-18T09:37:24.730Z,80.44
2019-03-18T09:38:24.785Z,80.33
2019-03-18T09:39:24.706Z,79.61
2019-03-18T09:40:24.719Z,79.79
2019-03-18T09:41:24.686Z,81.53
2019-03-18T09:42:24.680Z,81.74
2019-03-18T09:43:24.668Z,81.02
2019-03-18T09:44:24.657Z,78.75
2019-03-18T09:45:24.665Z,78.24
2019-03-18T09:46:24.634Z,78.41
2019-03-18T09:47:24.621Z,76.70
2019-03-18T09:48:24.615Z,77.31
2019-03-18T09:49:24.601Z,76.56
2019-03-18T09:50:24.622Z,78.65
2019-03-18T09:51:24.581Z,77.28
2019-03-18T09:52:24.566Z,77.34
2019-03-18T09:53:24.568Z,76.21
2019-03-18T09:54:24.549Z,76.11
2019-03-18T09:55:24.536Z,77.51
2019-03-18T09:56:24.548Z,76.07
2019-03-18T09:57:26.327Z,76.69
2019-03-18T09:58:24.514Z,75.35
2019-03-18T09:59:24.494Z,74.80
2019-03-18T10:00:24.486Z,74.91
2019-03-18T10:01:24.505Z,74.77
2019-03-18T10:02:24.542Z,75.32
2019-03-18T10:03:24.451Z,75.52
2019-03-18T10:04:24.443Z,75.29
2019-03-18T10:05:24.437Z,75.38
2019-03-18T10:06:24.445Z,75.90
2019-03-18T10:07:24.416Z,75.49
2019-03-18T10:08:25.376Z,77.23
2019-03-18T10:09:24.385Z,75.45
2019-03-18T10:10:24.389Z,75.45
2019-03-18T10:11:24.401Z,74.98
2019-03-18T10:12:24.355Z,74.63
2019-03-18T10:13:24.344Z,75.04
2019-03-18T10:14:24.333Z,75.04
2019-03-18T10:15:24.323Z,75.73
2019-03-18T10:16:24.322Z,75.32
2019-03-18T10:17:24.323Z,74.80
2019-03-18T10:18:24.290Z,75.11
2019-03-18T10:19:33.106Z,75.18
2019-03-18T10:20:25.269Z,74.15
2019-03-18T10:21:24.257Z,74.26
2019-03-18T10:22:24.281Z,74.87
2019-03-18T10:23:24.237Z,73.33
2019-03-18T10:24:24.232Z,74.15
2019-03-18T10:25:24.217Z,73.10
2019-03-18T10:26:24.203Z,74.73
2019-03-18T10:27:24.194Z,72.58
2019-03-18T10:28:24.203Z,74.53
2019-03-18T10:29:24.174Z,73.40
2019-03-18T10:30:24.159Z,73.40
2019-03-18T10:31:24.147Z,69.61
2019-03-18T10:32:24.136Z,69.81
2019-03-18T10:33:24.147Z,70.12
2019-03-18T10:34:24.136Z,69.40
2019-03-18T10:35:24.117Z,69.95
2019-03-18T10:36:24.124Z,71.45
2019-03-18T10:37:24.090Z,71.15
2019-03-18T10:38:24.107Z,70.94
2019-03-18T10:39:24.067Z,71.25
2019-03-18T10:40:24.062Z,70.84
2019-03-18T10:41:24.048Z,69.98
2019-03-18T10:42:24.036Z,71.62
2019-03-18T10:43:24.038Z,70.09
2019-03-18T10:44:24.011Z,71.18
2019-03-18T10:45:26.031Z,69.44
2019-03-18T10:46:26.149Z,67.80
2019-03-18T10:47:23.980Z,68.11
2019-03-18T10:48:23.991Z,71.28
2019-03-18T10:49:23.964Z,72.48
2019-03-18T10:50:23.965Z,69.82
2019-03-18T10:51:23.935Z,69.51
2019-03-18T10:52:23.952Z,68.08
2019-03-18T10:53:23.920Z,66.57
2019-03-18T10:54:30.862Z,65.99
2019-03-18T10:55:24.901Z,68.24
2019-03-18T10:56:23.888Z,68.24
2019-03-18T10:57:23.867Z,69.57
2019-03-18T10:58:23.862Z,68.27
2019-03-18T10:59:24.484Z,69.37
2019-03-18T11:00:23.842Z,68.35
2019-03-18T11:01:23.828Z,69.27
2019-03-18T11:02:23.813Z,70.06
2019-03-18T11:03:23.816Z,69.20
2019-03-18T11:04:23.817Z,70.12
2019-03-18T11:05:23.790Z,67.87
2019-03-18T11:06:23.782Z,68.25
2019-03-18T11:07:23.769Z,62.45
2019-03-18T11:08:23.759Z,63.88
2019-03-18T11:09:24.484Z,62.76
2019-03-18T11:10:23.741Z,63.91
2019-03-18T11:11:23.720Z,63.43
2019-03-18T11:12:23.713Z,62.02
2019-03-18T11:13:23.698Z,62.63
2019-03-18T11:14:23.707Z,67.86
2019-03-18T11:15:23.694Z,65.12
2019-03-18T11:16:23.679Z,67.90
2019-03-18T11:17:23.665Z,67.08
2019-03-18T11:18:23.646Z,66.77
2019-03-18T11:19:23.635Z,65.95
2019-03-18T11:20:23.646Z,67.49
2019-03-18T11:21:23.629Z,66.56
2019-03-18T11:22:23.603Z,67.38
2019-03-18T11:23:23.591Z,64.34
2019-03-18T11:24:23.578Z,68.24
2019-03-18T11:25:23.590Z,68.65
2019-03-18T11:26:23.554Z,70.80
2019-03-18T11:27:23.558Z,72.48
2019-03-18T11:28:23.536Z,73.10
2019-03-18T11:29:23.531Z,73.71
2019-03-18T11:30:23.531Z,73.74
2019-03-18T11:31:23.535Z,73.02
2019-03-18T11:32:23.503Z,74.67
2019-03-18T11:33:23.486Z,73.02
2019-03-18T11:34:23.481Z,73.74
2019-03-18T11:35:23.490Z,73.23
2019-03-18T11:36:23.474Z,73.02
2019-03-18T11:37:23.448Z,73.74
2019-03-18T11:38:23.456Z,73.74
2019-03-18T11:39:23.414Z,75.29
2019-03-18T11:40:23.442Z,74.26
2019-03-18T11:41:23.401Z,74.05
2019-03-18T11:42:23.385Z,73.13
2019-03-18T11:43:23.386Z,74.98
2019-03-18T11:44:23.367Z,73.44
2019-03-18T11:45:23.372Z,71.55
2019-03-18T11:46:23.362Z,71.69
2019-03-18T11:47:23.335Z,73.23
2019-03-18T11:48:23.355Z,72.51
2019-03-18T11:49:23.311Z,73.85
2019-03-18T11:50:23.309Z,73.85
2019-03-18T11:51:23.338Z,72.92
2019-03-18T11:52:23.277Z,73.33
2019-03-18T11:53:23.270Z,73.88
2019-03-18T11:54:23.361Z,74.29
2019-03-18T11:55:23.257Z,73.64
2019-03-18T11:56:23.256Z,73.74
2019-03-18T11:57:23.226Z,74.36
2019-03-18T11:58:23.226Z,73.02
2019-03-18T11:59:23.209Z,75.15
2019-03-18T12:00:23.191Z,73.19
2019-03-18T12:01:23.205Z,73.40
2019-03-18T12:02:27.584Z,75.42
2019-03-18T12:03:24.167Z,73.16
2019-03-18T12:04:23.148Z,72.00
2019-03-18T12:05:23.145Z,74.26
2019-03-18T12:06:23.146Z,73.30
2019-03-18T12:07:23.117Z,71.35
2019-03-18T12:08:23.111Z,70.02
2019-03-18T12:09:23.093Z,73.40
2019-03-18T12:10:25.607Z,73.06
2019-03-18T12:11:23.092Z,70.40
2019-03-18T12:12:23.070Z,70.50
2019-03-18T12:13:23.052Z,70.06
2019-03-18T12:14:23.036Z,69.65
2019-03-18T12:15:23.026Z,71.66
2019-03-18T12:16:23.071Z,69.71
2019-03-18T12:17:23.056Z,66.54
2019-03-18T12:18:23.029Z,66.51
2019-03-18T12:19:23.314Z,67.84
2019-03-18T12:20:25.514Z,69.38
2019-03-18T12:21:22.987Z,65.90
2019-03-18T12:22:22.950Z,65.49
2019-03-18T12:23:22.944Z,65.97
2019-03-18T12:24:22.997Z,63.92
2019-03-18T12:25:22.930Z,63.00
2019-03-18T12:26:22.926Z,63.21
2019-03-18T12:27:22.921Z,60.75
2019-03-18T12:28:22.887Z,63.62
2019-03-18T12:29:22.895Z,66.17
2019-03-18T12:30:22.883Z,62.87
2019-03-18T12:31:22.884Z,60.44
2019-03-18T12:32:22.842Z,66.25
2019-03-18T12:33:22.843Z,62.36
2019-03-18T12:34:22.824Z,58.48
2019-03-18T12:35:22.809Z,58.48
2019-03-18T12:36:22.816Z,54.00
2019-03-18T12:37:22.796Z,54.10
2019-03-18T12:38:22.777Z,53.49
2019-03-18T12:39:24.713Z,58.09
2019-03-18T12:40:22.764Z,54.82
2019-03-18T12:41:22.765Z,54.31
2019-03-18T12:42:22.738Z,56.79
2019-03-18T12:43:22.727Z,55.97
2019-03-18T12:44:22.716Z,57.30
2019-03-18T12:45:22.704Z,57.10
2019-03-18T12:46:22.712Z,57.53
2019-03-18T12:47:22.683Z,59.38
2019-03-18T12:48:22.684Z,58.04
2019-03-18T12:49:22.663Z,58.66
2019-03-18T12:50:36.920Z,57.56
2019-03-18T12:51:23.669Z,57.56
2019-03-18T12:52:22.630Z,57.66